sensor_id;sensor_type;location;lat;lon;timestamp;temperature;humidity
15991;DHT22;8100;50.994;4.538;2023-03-11T00:01:06;0.60;99.90
15991;DHT22;8100;50.994;4.538;2023-03-11T00:03:53;0.60;99.90
15991;DHT22;8100;50.994;4.538;2023-03-11T00:06:42;0.60;99.90
15991;DHT22;8100;50.994;4.538;2023-03-11T00:09:29;0.60;99.90
15991;DHT22;8100;50.994;4.538;2023-03-11T00:12:16;0.60;99.90
15991;DHT22;8100;50.994;4.538;2023-03-11T00:15:04;0.50;99.90
15991;DHT22;8100;50.994;4.538;2023-03-11T00:17:52;0.50;99.90
15991;DHT22;8100;50.994;4.538;2023-03-11T00:20:42;0.50;99.90
15991;DHT22;8100;50.994;4.538;2023-03-11T00:23:30;0.50;99.90
15991;DHT22;8100;50.994;4.538;2023-03-11T00:26:19;0.50;99.90
15991;DHT22;8100;50.994;4.538;2023-03-11T00:29:06;0.40;99.90
15991;DHT22;8100;50.994;4.538;2023-03-11T00:31:53;0.50;99.90
15991;DHT22;8100;50.994;4.538;2023-03-11T00:34:41;0.50;99.90
15991;DHT22;8100;50.994;4.538;2023-03-11T00:37:28;0.40;99.90
15991;DHT22;8100;50.994;4.538;2023-03-11T00:40:19;0.40;99.90
15991;DHT22;8100;50.994;4.538;2023-03-11T00:43:06;0.40;99.90
15991;DHT22;8100;50.994;4.538;2023-03-11T00:45:54;0.40;99.90
15991;DHT22;8100;50.994;4.538;2023-03-11T00:48:41;0.30;99.90
15991;DHT22;8100;50.994;4.538;2023-03-11T00:51:28;0.30;99.90
15991;DHT22;8100;50.994;4.538;2023-03-11T00:54:15;0.30;99.90
15991;DHT22;8100;50.994;4.538;2023-03-11T00:57:04;0.20;99.90
15991;DHT22;8100;50.994;4.538;2023-03-11T00:59:51;0.20;99.90
15991;DHT22;8100;50.994;4.538;2023-03-11T01:02:38;0.20;99.90
15991;DHT22;8100;50.994;4.538;2023-03-11T01:05:27;0.10;99.90
15991;DHT22;8100;50.994;4.538;2023-03-11T01:08:15;0.10;99.90
15991;DHT22;8100;50.994;4.538;2023-03-11T01:11:04;0.10;99.90
15991;DHT22;8100;50.994;4.538;2023-03-11T01:13:52;0.00;99.90
15991;DHT22;8100;50.994;4.538;2023-03-11T01:16:40;-0.10;99.90
15991;DHT22;8100;50.994;4.538;2023-03-11T01:19:27;-0.10;99.90
15991;DHT22;8100;50.994;4.538;2023-03-11T01:22:14;0.00;99.90
15991;DHT22;8100;50.994;4.538;2023-03-11T01:25:02;0.00;99.90
15991;DHT22;8100;50.994;4.538;2023-03-11T01:27:49;0.00;99.90
15991;DHT22;8100;50.994;4.538;2023-03-11T01:30:40;0.00;99.90
15991;DHT22;8100;50.994;4.538;2023-03-11T01:33:27;0.00;99.90
15991;DHT22;8100;50.994;4.538;2023-03-11T01:36:15;0.00;99.90
15991;DHT22;8100;50.994;4.538;2023-03-11T01:39:02;0.00;99.90
15991;DHT22;8100;50.994;4.538;2023-03-11T01:41:49;0.00;99.90
15991;DHT22;8100;50.994;4.538;2023-03-11T01:44:37;0.20;99.90
15991;DHT22;8100;50.994;4.538;2023-03-11T01:47:37;0.30;99.90
15991;DHT22;8100;50.994;4.538;2023-03-11T01:50:27;0.30;99.90
15991;DHT22;8100;50.994;4.538;2023-03-11T01:53:16;0.30;99.90
15991;DHT22;8100;50.994;4.538;2023-03-11T01:56:05;0.30;99.90
15991;DHT22;8100;50.994;4.538;2023-03-11T01:58:53;0.30;99.90
15991;DHT22;8100;50.994;4.538;2023-03-11T02:01:45;0.40;99.90
15991;DHT22;8100;50.994;4.538;2023-03-11T02:04:37;0.40;99.90
15991;DHT22;8100;50.994;4.538;2023-03-11T02:07:26;0.40;99.90
15991;DHT22;8100;50.994;4.538;2023-03-11T02:10:13;0.40;99.90
15991;DHT22;8100;50.994;4.538;2023-03-11T02:13:02;0.50;99.90
15991;DHT22;8100;50.994;4.538;2023-03-11T02:15:49;0.40;99.90
15991;DHT22;8100;50.994;4.538;2023-03-11T02:18:37;0.50;99.90
15991;DHT22;8100;50.994;4.538;2023-03-11T02:21:28;0.40;99.90
15991;DHT22;8100;50.994;4.538;2023-03-11T02:24:18;0.30;99.90
15991;DHT22;8100;50.994;4.538;2023-03-11T02:27:11;0.20;99.90
15991;DHT22;8100;50.994;4.538;2023-03-11T02:30:00;0.10;99.90
15991;DHT22;8100;50.994;4.538;2023-03-11T02:32:47;0.10;99.90
15991;DHT22;8100;50.994;4.538;2023-03-11T02:35:35;0.20;99.90
15991;DHT22;8100;50.994;4.538;2023-03-11T02:38:22;0.30;99.90
15991;DHT22;8100;50.994;4.538;2023-03-11T02:41:10;0.30;99.90
15991;DHT22;8100;50.994;4.538;2023-03-11T02:43:59;0.20;99.90
15991;DHT22;8100;50.994;4.538;2023-03-11T02:46:46;0.10;99.90
15991;DHT22;8100;50.994;4.538;2023-03-11T02:49:34;0.10;99.90
15991;DHT22;8100;50.994;4.538;2023-03-11T02:52:24;0.00;99.90
15991;DHT22;8100;50.994;4.538;2023-03-11T02:55:11;0.00;99.90
15991;DHT22;8100;50.994;4.538;2023-03-11T02:58:00;-0.10;99.90
15991;DHT22;8100;50.994;4.538;2023-03-11T03:00:49;-0.10;99.90
15991;DHT22;8100;50.994;4.538;2023-03-11T03:03:36;-0.20;99.90
15991;DHT22;8100;50.994;4.538;2023-03-11T03:06:23;-0.20;99.90
15991;DHT22;8100;50.994;4.538;2023-03-11T03:09:11;-0.30;99.90
15991;DHT22;8100;50.994;4.538;2023-03-11T03:11:58;-0.30;99.90
15991;DHT22;8100;50.994;4.538;2023-03-11T03:14:45;-0.40;99.90
15991;DHT22;8100;50.994;4.538;2023-03-11T03:17:34;-0.60;99.90
15991;DHT22;8100;50.994;4.538;2023-03-11T03:20:21;-0.40;99.90
15991;DHT22;8100;50.994;4.538;2023-03-11T03:23:08;-0.40;99.90
15991;DHT22;8100;50.994;4.538;2023-03-11T03:25:55;-0.30;99.90
15991;DHT22;8100;50.994;4.538;2023-03-11T03:28:43;-0.20;99.90
15991;DHT22;8100;50.994;4.538;2023-03-11T03:31:30;-0.20;99.90
15991;DHT22;8100;50.994;4.538;2023-03-11T03:34:19;-0.20;99.90
15991;DHT22;8100;50.994;4.538;2023-03-11T03:37:06;0.00;99.90
15991;DHT22;8100;50.994;4.538;2023-03-11T03:39:54;0.00;99.90
15991;DHT22;8100;50.994;4.538;2023-03-11T03:42:41;0.10;99.90
15991;DHT22;8100;50.994;4.538;2023-03-11T03:45:28;-0.10;99.90
15991;DHT22;8100;50.994;4.538;2023-03-11T03:48:16;-0.20;99.90
15991;DHT22;8100;50.994;4.538;2023-03-11T03:51:06;-0.30;99.90
15991;DHT22;8100;50.994;4.538;2023-03-11T03:53:53;-0.30;99.90
15991;DHT22;8100;50.994;4.538;2023-03-11T03:56:40;-0.50;99.90
15991;DHT22;8100;50.994;4.538;2023-03-11T03:59:28;-0.40;99.90
15991;DHT22;8100;50.994;4.538;2023-03-11T04:02:15;-0.40;99.90
15991;DHT22;8100;50.994;4.538;2023-03-11T04:05:02;-0.60;99.90
15991;DHT22;8100;50.994;4.538;2023-03-11T04:07:51;-0.40;99.90
15991;DHT22;8100;50.994;4.538;2023-03-11T04:10:38;-0.60;99.90
15991;DHT22;8100;50.994;4.538;2023-03-11T04:13:25;-1.00;99.90
15991;DHT22;8100;50.994;4.538;2023-03-11T04:16:16;-1.10;99.90
15991;DHT22;8100;50.994;4.538;2023-03-11T04:19:04;-1.10;99.90
15991;DHT22;8100;50.994;4.538;2023-03-11T04:21:51;-0.70;99.90
15991;DHT22;8100;50.994;4.538;2023-03-11T04:24:40;-1.00;99.90
15991;DHT22;8100;50.994;4.538;2023-03-11T04:27:27;-1.30;99.90
15991;DHT22;8100;50.994;4.538;2023-03-11T04:30:14;-1.00;99.90
15991;DHT22;8100;50.994;4.538;2023-03-11T04:33:02;-1.30;99.90
15991;DHT22;8100;50.994;4.538;2023-03-11T04:35:49;-0.80;99.90
15991;DHT22;8100;50.994;4.538;2023-03-11T04:38:36;-1.00;99.90
15991;DHT22;8100;50.994;4.538;2023-03-11T04:41:25;-0.90;99.90
15991;DHT22;8100;50.994;4.538;2023-03-11T04:44:12;-1.40;99.90
15991;DHT22;8100;50.994;4.538;2023-03-11T04:46:59;-0.80;99.90
15991;DHT22;8100;50.994;4.538;2023-03-11T04:49:46;-1.30;99.90
15991;DHT22;8100;50.994;4.538;2023-03-11T04:52:34;-1.00;99.90
15991;DHT22;8100;50.994;4.538;2023-03-11T04:55:21;-0.70;99.90
15991;DHT22;8100;50.994;4.538;2023-03-11T04:58:09;-0.50;99.90
15991;DHT22;8100;50.994;4.538;2023-03-11T05:00:56;-0.80;99.90
15991;DHT22;8100;50.994;4.538;2023-03-11T05:03:44;-1.10;99.90
15991;DHT22;8100;50.994;4.538;2023-03-11T05:06:32;-0.60;99.90
15991;DHT22;8100;50.994;4.538;2023-03-11T05:09:19;-1.40;99.90
15991;DHT22;8100;50.994;4.538;2023-03-11T05:12:06;-0.80;99.90
15991;DHT22;8100;50.994;4.538;2023-03-11T05:14:55;-1.60;99.90
15991;DHT22;8100;50.994;4.538;2023-03-11T05:17:43;-1.70;99.90
15991;DHT22;8100;50.994;4.538;2023-03-11T05:20:30;-1.00;99.90
15991;DHT22;8100;50.994;4.538;2023-03-11T05:23:17;-1.10;99.90
15991;DHT22;8100;50.994;4.538;2023-03-11T05:26:04;-1.00;99.90
15991;DHT22;8100;50.994;4.538;2023-03-11T05:28:52;-1.50;99.90
15991;DHT22;8100;50.994;4.538;2023-03-11T05:31:40;-1.10;99.90
15991;DHT22;8100;50.994;4.538;2023-03-11T05:34:28;-1.00;99.90
15991;DHT22;8100;50.994;4.538;2023-03-11T05:37:15;-1.50;99.90
15991;DHT22;8100;50.994;4.538;2023-03-11T05:40:03;-1.10;99.90
15991;DHT22;8100;50.994;4.538;2023-03-11T05:42:51;-1.70;99.90
15991;DHT22;8100;50.994;4.538;2023-03-11T05:45:38;-1.40;99.90
15991;DHT22;8100;50.994;4.538;2023-03-11T05:48:27;-1.40;99.90
15991;DHT22;8100;50.994;4.538;2023-03-11T05:51:14;-1.10;99.90
15991;DHT22;8100;50.994;4.538;2023-03-11T05:54:01;-0.90;99.90
15991;DHT22;8100;50.994;4.538;2023-03-11T05:56:49;-1.00;99.90
15991;DHT22;8100;50.994;4.538;2023-03-11T05:59:36;-0.80;99.90
15991;DHT22;8100;50.994;4.538;2023-03-11T06:02:23;-1.40;99.90
15991;DHT22;8100;50.994;4.538;2023-03-11T06:05:12;-0.80;99.90
15991;DHT22;8100;50.994;4.538;2023-03-11T06:07:59;-0.80;99.90
15991;DHT22;8100;50.994;4.538;2023-03-11T06:10:46;-1.50;99.90
15991;DHT22;8100;50.994;4.538;2023-03-11T06:13:33;-1.40;99.90
15991;DHT22;8100;50.994;4.538;2023-03-11T06:16:21;-0.60;99.90
15991;DHT22;8100;50.994;4.538;2023-03-11T06:19:08;-1.20;99.90
15991;DHT22;8100;50.994;4.538;2023-03-11T06:21:57;-0.60;99.90
15991;DHT22;8100;50.994;4.538;2023-03-11T06:24:44;-0.50;99.90
15991;DHT22;8100;50.994;4.538;2023-03-11T06:27:31;-1.20;99.90
15991;DHT22;8100;50.994;4.538;2023-03-11T06:30:19;-1.00;99.90
15991;DHT22;8100;50.994;4.538;2023-03-11T06:33:06;-0.60;99.90
15991;DHT22;8100;50.994;4.538;2023-03-11T06:35:57;-1.30;99.90
15991;DHT22;8100;50.994;4.538;2023-03-11T06:38:45;-0.50;99.90
15991;DHT22;8100;50.994;4.538;2023-03-11T06:41:33;-0.50;99.90
15991;DHT22;8100;50.994;4.538;2023-03-11T06:44:20;-0.70;99.90
15991;DHT22;8100;50.994;4.538;2023-03-11T06:47:07;-0.40;99.90
15991;DHT22;8100;50.994;4.538;2023-03-11T06:49:54;-0.30;99.90
15991;DHT22;8100;50.994;4.538;2023-03-11T06:52:42;-0.20;99.90
15991;DHT22;8100;50.994;4.538;2023-03-11T06:55:30;-0.90;99.90
15991;DHT22;8100;50.994;4.538;2023-03-11T06:58:18;-0.80;99.90
15991;DHT22;8100;50.994;4.538;2023-03-11T07:01:07;0.00;99.90
15991;DHT22;8100;50.994;4.538;2023-03-11T07:03:54;0.10;99.90
15991;DHT22;8100;50.994;4.538;2023-03-11T07:06:41;0.20;99.90
15991;DHT22;8100;50.994;4.538;2023-03-11T07:09:29;-0.40;99.90
15991;DHT22;8100;50.994;4.538;2023-03-11T07:12:17;0.30;99.90
15991;DHT22;8100;50.994;4.538;2023-03-11T07:15:09;0.40;99.90
15991;DHT22;8100;50.994;4.538;2023-03-11T07:17:56;0.70;99.90
15991;DHT22;8100;50.994;4.538;2023-03-11T07:20:44;0.20;99.90
15991;DHT22;8100;50.994;4.538;2023-03-11T07:23:31;0.40;99.90
15991;DHT22;8100;50.994;4.538;2023-03-11T07:26:19;0.40;99.90
15991;DHT22;8100;50.994;4.538;2023-03-11T07:29:08;0.50;99.90
15991;DHT22;8100;50.994;4.538;2023-03-11T07:31:56;1.20;99.90
15991;DHT22;8100;50.994;4.538;2023-03-11T07:34:43;1.30;99.90
15991;DHT22;8100;50.994;4.538;2023-03-11T07:37:30;0.80;99.90
15991;DHT22;8100;50.994;4.538;2023-03-11T07:40:17;0.80;99.90
15991;DHT22;8100;50.994;4.538;2023-03-11T07:43:05;1.50;99.90
15991;DHT22;8100;50.994;4.538;2023-03-11T07:46:01;1.60;99.90
15991;DHT22;8100;50.994;4.538;2023-03-11T07:48:49;1.40;99.90
15991;DHT22;8100;50.994;4.538;2023-03-11T07:51:38;1.30;99.90
15991;DHT22;8100;50.994;4.538;2023-03-11T07:54:25;1.60;99.90
15991;DHT22;8100;50.994;4.538;2023-03-11T07:57:13;1.40;99.90
15991;DHT22;8100;50.994;4.538;2023-03-11T08:00:02;1.80;99.90
15991;DHT22;8100;50.994;4.538;2023-03-11T08:02:51;1.60;99.90
15991;DHT22;8100;50.994;4.538;2023-03-11T08:05:39;1.80;99.90
15991;DHT22;8100;50.994;4.538;2023-03-11T08:08:26;2.10;99.90
15991;DHT22;8100;50.994;4.538;2023-03-11T08:11:14;1.90;99.90
15991;DHT22;8100;50.994;4.538;2023-03-11T08:14:01;2.40;99.90
15991;DHT22;8100;50.994;4.538;2023-03-11T08:16:48;2.50;99.90
15991;DHT22;8100;50.994;4.538;2023-03-11T08:19:37;2.70;99.90
15991;DHT22;8100;50.994;4.538;2023-03-11T08:22:24;2.70;99.90
15991;DHT22;8100;50.994;4.538;2023-03-11T08:25:11;2.80;99.90
15991;DHT22;8100;50.994;4.538;2023-03-11T08:27:58;2.80;99.90
15991;DHT22;8100;50.994;4.538;2023-03-11T08:30:46;2.80;99.90
15991;DHT22;8100;50.994;4.538;2023-03-11T08:33:33;2.80;99.90
15991;DHT22;8100;50.994;4.538;2023-03-11T08:36:21;2.90;99.90
15991;DHT22;8100;50.994;4.538;2023-03-11T08:39:09;3.00;99.90
15991;DHT22;8100;50.994;4.538;2023-03-11T08:41:56;3.10;99.90
15991;DHT22;8100;50.994;4.538;2023-03-11T08:44:44;3.30;99.90
15991;DHT22;8100;50.994;4.538;2023-03-11T08:47:33;3.40;99.90
15991;DHT22;8100;50.994;4.538;2023-03-11T08:50:21;3.50;99.90
15991;DHT22;8100;50.994;4.538;2023-03-11T08:53:10;3.80;99.90
15991;DHT22;8100;50.994;4.538;2023-03-11T08:55:57;3.90;99.90
15991;DHT22;8100;50.994;4.538;2023-03-11T08:58:44;4.10;99.90
15991;DHT22;8100;50.994;4.538;2023-03-11T09:01:31;4.10;99.90
15991;DHT22;8100;50.994;4.538;2023-03-11T09:04:19;4.00;99.90
15991;DHT22;8100;50.994;4.538;2023-03-11T09:07:06;3.90;99.90
15991;DHT22;8100;50.994;4.538;2023-03-11T09:09:54;4.00;99.90
15991;DHT22;8100;50.994;4.538;2023-03-11T09:12:42;4.20;99.90
15991;DHT22;8100;50.994;4.538;2023-03-11T09:15:29;4.30;99.90
15991;DHT22;8100;50.994;4.538;2023-03-11T09:18:17;4.20;99.90
15991;DHT22;8100;50.994;4.538;2023-03-11T09:21:05;4.50;99.90
15991;DHT22;8100;50.994;4.538;2023-03-11T09:23:52;4.70;99.90
15991;DHT22;8100;50.994;4.538;2023-03-11T09:26:41;4.80;99.90
15991;DHT22;8100;50.994;4.538;2023-03-11T09:29:29;4.90;99.90
15991;DHT22;8100;50.994;4.538;2023-03-11T09:32:16;5.10;99.90
15991;DHT22;8100;50.994;4.538;2023-03-11T09:35:04;4.80;99.90
15991;DHT22;8100;50.994;4.538;2023-03-11T09:37:51;4.90;99.90
15991;DHT22;8100;50.994;4.538;2023-03-11T09:40:48;5.20;99.90
15991;DHT22;8100;50.994;4.538;2023-03-11T09:43:46;5.30;99.90
15991;DHT22;8100;50.994;4.538;2023-03-11T09:50:12;5.60;99.90
15991;DHT22;8100;50.994;4.538;2023-03-11T09:53:11;5.70;99.90
15991;DHT22;8100;50.994;4.538;2023-03-11T09:56:06;5.90;99.90
15991;DHT22;8100;50.994;4.538;2023-03-11T09:58:57;6.00;99.90
15991;DHT22;8100;50.994;4.538;2023-03-11T10:01:47;6.00;99.90
15991;DHT22;8100;50.994;4.538;2023-03-11T10:04:40;6.10;99.90
15991;DHT22;8100;50.994;4.538;2023-03-11T10:07:33;6.40;99.90
15991;DHT22;8100;50.994;4.538;2023-03-11T10:10:23;6.50;99.90
15991;DHT22;8100;50.994;4.538;2023-03-11T10:13:17;6.00;99.90
15991;DHT22;8100;50.994;4.538;2023-03-11T10:16:14;5.90;99.90
15991;DHT22;8100;50.994;4.538;2023-03-11T10:19:10;6.00;99.90
15991;DHT22;8100;50.994;4.538;2023-03-11T10:22:08;5.90;99.90
15991;DHT22;8100;50.994;4.538;2023-03-11T10:25:03;6.30;99.90
15991;DHT22;8100;50.994;4.538;2023-03-11T10:27:56;6.80;99.90
15991;DHT22;8100;50.994;4.538;2023-03-11T10:30:47;7.00;99.90
15991;DHT22;8100;50.994;4.538;2023-03-11T10:33:41;7.50;99.90
15991;DHT22;8100;50.994;4.538;2023-03-11T10:36:34;7.40;99.90
15991;DHT22;8100;50.994;4.538;2023-03-11T10:39:24;7.30;99.90
15991;DHT22;8100;50.994;4.538;2023-03-11T10:42:15;7.40;99.90
15991;DHT22;8100;50.994;4.538;2023-03-11T10:45:04;7.40;99.90
15991;DHT22;8100;50.994;4.538;2023-03-11T10:47:57;7.30;99.90
15991;DHT22;8100;50.994;4.538;2023-03-11T10:50:49;7.40;99.90
15991;DHT22;8100;50.994;4.538;2023-03-11T10:53:44;7.30;99.90
15991;DHT22;8100;50.994;4.538;2023-03-11T10:56:34;6.90;99.90
15991;DHT22;8100;50.994;4.538;2023-03-11T10:59:24;6.60;99.90
15991;DHT22;8100;50.994;4.538;2023-03-11T11:02:22;6.80;99.90
15991;DHT22;8100;50.994;4.538;2023-03-11T11:05:27;6.90;99.90
15991;DHT22;8100;50.994;4.538;2023-03-11T11:08:16;7.30;99.90
15991;DHT22;8100;50.994;4.538;2023-03-11T11:11:19;7.50;99.90
15991;DHT22;8100;50.994;4.538;2023-03-11T11:14:07;7.50;99.90
15991;DHT22;8100;50.994;4.538;2023-03-11T11:16:55;7.50;99.90
15991;DHT22;8100;50.994;4.538;2023-03-11T11:19:43;8.00;99.90
15991;DHT22;8100;50.994;4.538;2023-03-11T11:22:31;8.10;99.90
15991;DHT22;8100;50.994;4.538;2023-03-11T11:25:29;8.40;99.90
15991;DHT22;8100;50.994;4.538;2023-03-11T11:28:18;8.10;99.90
15991;DHT22;8100;50.994;4.538;2023-03-11T11:31:19;7.30;99.90
15991;DHT22;8100;50.994;4.538;2023-03-11T11:34:26;7.10;99.90
15991;DHT22;8100;50.994;4.538;2023-03-11T11:37:14;7.00;99.90
15991;DHT22;8100;50.994;4.538;2023-03-11T11:40:04;7.60;99.90
15991;DHT22;8100;50.994;4.538;2023-03-11T11:43:00;8.40;99.90
15991;DHT22;8100;50.994;4.538;2023-03-11T11:45:53;8.30;99.90
15991;DHT22;8100;50.994;4.538;2023-03-11T11:48:47;8.30;99.90
15991;DHT22;8100;50.994;4.538;2023-03-11T11:51:38;8.20;99.90
15991;DHT22;8100;50.994;4.538;2023-03-11T11:54:30;7.70;99.90
15991;DHT22;8100;50.994;4.538;2023-03-11T11:57:20;7.40;99.90
15991;DHT22;8100;50.994;4.538;2023-03-11T12:00:16;7.60;99.90
15991;DHT22;8100;50.994;4.538;2023-03-11T12:03:20;7.90;99.90
15991;DHT22;8100;50.994;4.538;2023-03-11T12:06:20;8.00;99.90
15991;DHT22;8100;50.994;4.538;2023-03-11T12:09:19;7.30;99.90
15991;DHT22;8100;50.994;4.538;2023-03-11T12:12:18;7.20;99.90
15991;DHT22;8100;50.994;4.538;2023-03-11T12:15:09;7.20;99.90
15991;DHT22;8100;50.994;4.538;2023-03-11T12:18:04;7.00;99.90
15991;DHT22;8100;50.994;4.538;2023-03-11T12:20:54;7.10;99.90
15991;DHT22;8100;50.994;4.538;2023-03-11T12:23:47;7.50;99.90
15991;DHT22;8100;50.994;4.538;2023-03-11T12:26:41;8.00;99.90
15991;DHT22;8100;50.994;4.538;2023-03-11T12:29:33;8.70;99.90
15991;DHT22;8100;50.994;4.538;2023-03-11T12:32:29;8.80;99.90
15991;DHT22;8100;50.994;4.538;2023-03-11T12:35:22;8.80;99.90
15991;DHT22;8100;50.994;4.538;2023-03-11T12:38:16;8.90;99.90
15991;DHT22;8100;50.994;4.538;2023-03-11T12:41:05;8.70;99.90
15991;DHT22;8100;50.994;4.538;2023-03-11T12:44:03;8.90;99.90
15991;DHT22;8100;50.994;4.538;2023-03-11T12:50:37;9.10;99.90
15991;DHT22;8100;50.994;4.538;2023-03-11T12:53:41;9.00;99.90
15991;DHT22;8100;50.994;4.538;2023-03-11T12:56:34;9.00;99.90
15991;DHT22;8100;50.994;4.538;2023-03-11T12:59:53;8.80;99.90
15991;DHT22;8100;50.994;4.538;2023-03-11T13:06:29;8.10;99.90
15991;DHT22;8100;50.994;4.538;2023-03-11T13:09:18;8.20;99.90
15991;DHT22;8100;50.994;4.538;2023-03-11T13:12:39;7.80;99.90
15991;DHT22;8100;50.994;4.538;2023-03-11T13:15:36;7.60;99.90
15991;DHT22;8100;50.994;4.538;2023-03-11T13:18:27;7.50;99.90
15991;DHT22;8100;50.994;4.538;2023-03-11T13:21:37;7.30;99.90
15991;DHT22;8100;50.994;4.538;2023-03-11T13:24:53;7.40;99.90
15991;DHT22;8100;50.994;4.538;2023-03-11T13:27:42;7.60;99.90
15991;DHT22;8100;50.994;4.538;2023-03-11T13:30:36;7.60;99.90
15991;DHT22;8100;50.994;4.538;2023-03-11T13:33:32;7.60;99.90
15991;DHT22;8100;50.994;4.538;2023-03-11T13:36:55;7.30;99.90
15991;DHT22;8100;50.994;4.538;2023-03-11T13:39:53;7.00;99.90
15991;DHT22;8100;50.994;4.538;2023-03-11T13:42:47;7.00;99.90
15991;DHT22;8100;50.994;4.538;2023-03-11T13:45:36;6.90;99.90
15991;DHT22;8100;50.994;4.538;2023-03-11T13:48:28;7.00;99.90
15991;DHT22;8100;50.994;4.538;2023-03-11T13:51:18;7.40;99.90
15991;DHT22;8100;50.994;4.538;2023-03-11T13:54:25;7.80;99.90
15991;DHT22;8100;50.994;4.538;2023-03-11T13:57:25;8.10;99.90
15991;DHT22;8100;50.994;4.538;2023-03-11T14:00:15;8.00;99.90
15991;DHT22;8100;50.994;4.538;2023-03-11T14:03:04;8.10;99.90
15991;DHT22;8100;50.994;4.538;2023-03-11T14:06:00;8.10;99.90
15991;DHT22;8100;50.994;4.538;2023-03-11T14:08:52;8.00;99.90
15991;DHT22;8100;50.994;4.538;2023-03-11T14:11:41;7.80;99.90
15991;DHT22;8100;50.994;4.538;2023-03-11T14:14:41;7.60;99.90
15991;DHT22;8100;50.994;4.538;2023-03-11T14:17:29;7.40;99.90
15991;DHT22;8100;50.994;4.538;2023-03-11T14:20:18;7.40;99.90
15991;DHT22;8100;50.994;4.538;2023-03-11T14:23:17;7.50;99.90
15991;DHT22;8100;50.994;4.538;2023-03-11T14:26:06;7.40;99.90
15991;DHT22;8100;50.994;4.538;2023-03-11T14:28:57;8.00;99.90
15991;DHT22;8100;50.994;4.538;2023-03-11T14:31:46;8.50;99.90
15991;DHT22;8100;50.994;4.538;2023-03-11T14:34:39;8.70;99.90
15991;DHT22;8100;50.994;4.538;2023-03-11T14:37:31;8.90;99.90
15991;DHT22;8100;50.994;4.538;2023-03-11T14:40:22;9.10;99.90
15991;DHT22;8100;50.994;4.538;2023-03-11T14:43:10;9.10;99.90
15991;DHT22;8100;50.994;4.538;2023-03-11T14:46:00;9.10;99.90
15991;DHT22;8100;50.994;4.538;2023-03-11T14:48:48;11.30;99.90
15991;DHT22;8100;50.994;4.538;2023-03-11T14:51:35;12.90;99.90
15991;DHT22;8100;50.994;4.538;2023-03-11T14:54:25;13.70;99.90
15991;DHT22;8100;50.994;4.538;2023-03-11T14:57:18;14.00;99.90
15991;DHT22;8100;50.994;4.538;2023-03-11T15:00:13;14.20;99.90
15991;DHT22;8100;50.994;4.538;2023-03-11T15:03:10;13.80;99.90
15991;DHT22;8100;50.994;4.538;2023-03-11T15:06:02;13.80;99.90
15991;DHT22;8100;50.994;4.538;2023-03-11T15:08:55;13.30;99.90
15991;DHT22;8100;50.994;4.538;2023-03-11T15:11:46;13.80;99.90
15991;DHT22;8100;50.994;4.538;2023-03-11T15:14:35;14.00;99.90
15991;DHT22;8100;50.994;4.538;2023-03-11T15:17:24;13.90;99.90
15991;DHT22;8100;50.994;4.538;2023-03-11T15:20:24;14.20;99.90
15991;DHT22;8100;50.994;4.538;2023-03-11T15:23:20;14.00;99.90
15991;DHT22;8100;50.994;4.538;2023-03-11T15:26:20;12.90;99.90
15991;DHT22;8100;50.994;4.538;2023-03-11T15:29:13;12.80;99.90
15991;DHT22;8100;50.994;4.538;2023-03-11T15:32:32;14.20;99.90
15991;DHT22;8100;50.994;4.538;2023-03-11T15:35:24;14.00;99.90
15991;DHT22;8100;50.994;4.538;2023-03-11T15:38:18;13.10;99.90
15991;DHT22;8100;50.994;4.538;2023-03-11T15:41:09;14.50;99.90
15991;DHT22;8100;50.994;4.538;2023-03-11T15:43:56;13.60;99.90
15991;DHT22;8100;50.994;4.538;2023-03-11T15:46:46;14.80;99.90
15991;DHT22;8100;50.994;4.538;2023-03-11T15:49:34;16.10;99.90
15991;DHT22;8100;50.994;4.538;2023-03-11T15:52:22;16.40;99.90
15991;DHT22;8100;50.994;4.538;2023-03-11T15:55:10;16.60;99.90
15991;DHT22;8100;50.994;4.538;2023-03-11T15:58:01;16.30;99.90
15991;DHT22;8100;50.994;4.538;2023-03-11T16:00:50;15.90;99.90
15991;DHT22;8100;50.994;4.538;2023-03-11T16:03:37;15.00;99.90
15991;DHT22;8100;50.994;4.538;2023-03-11T16:06:24;13.50;99.90
15991;DHT22;8100;50.994;4.538;2023-03-11T16:09:14;12.50;99.90
15991;DHT22;8100;50.994;4.538;2023-03-11T16:12:04;10.70;99.90
15991;DHT22;8100;50.994;4.538;2023-03-11T16:14:55;9.50;99.90
15991;DHT22;8100;50.994;4.538;2023-03-11T16:17:42;8.80;99.90
15991;DHT22;8100;50.994;4.538;2023-03-11T16:20:32;8.50;99.90
15991;DHT22;8100;50.994;4.538;2023-03-11T16:23:21;8.40;99.90
15991;DHT22;8100;50.994;4.538;2023-03-11T16:26:11;8.10;99.90
15991;DHT22;8100;50.994;4.538;2023-03-11T16:28:58;7.90;99.90
15991;DHT22;8100;50.994;4.538;2023-03-11T16:31:45;7.80;99.90
15991;DHT22;8100;50.994;4.538;2023-03-11T16:34:34;7.70;99.90
15991;DHT22;8100;50.994;4.538;2023-03-11T16:37:21;7.60;99.90
15991;DHT22;8100;50.994;4.538;2023-03-11T16:40:11;7.60;99.90
15991;DHT22;8100;50.994;4.538;2023-03-11T16:43:01;7.40;99.90
15991;DHT22;8100;50.994;4.538;2023-03-11T16:45:49;7.30;99.90
15991;DHT22;8100;50.994;4.538;2023-03-11T16:48:38;7.20;99.90
15991;DHT22;8100;50.994;4.538;2023-03-11T16:51:25;7.10;99.90
15991;DHT22;8100;50.994;4.538;2023-03-11T16:54:13;7.10;99.90
15991;DHT22;8100;50.994;4.538;2023-03-11T16:57:00;7.10;99.90
15991;DHT22;8100;50.994;4.538;2023-03-11T16:59:49;7.10;99.90
15991;DHT22;8100;50.994;4.538;2023-03-11T17:02:37;7.00;99.90
15991;DHT22;8100;50.994;4.538;2023-03-11T17:05:24;7.00;99.90
15991;DHT22;8100;50.994;4.538;2023-03-11T17:08:12;6.80;99.90
15991;DHT22;8100;50.994;4.538;2023-03-11T17:11:01;6.60;99.90
15991;DHT22;8100;50.994;4.538;2023-03-11T17:13:49;6.60;99.90
15991;DHT22;8100;50.994;4.538;2023-03-11T17:16:37;6.40;99.90
15991;DHT22;8100;50.994;4.538;2023-03-11T17:19:25;6.30;99.90
15991;DHT22;8100;50.994;4.538;2023-03-11T17:22:12;6.20;99.90
15991;DHT22;8100;50.994;4.538;2023-03-11T17:24:59;6.20;99.90
15991;DHT22;8100;50.994;4.538;2023-03-11T17:27:46;6.00;99.90
15991;DHT22;8100;50.994;4.538;2023-03-11T17:30:34;6.00;99.90
15991;DHT22;8100;50.994;4.538;2023-03-11T17:33:22;5.90;99.90
15991;DHT22;8100;50.994;4.538;2023-03-11T17:36:12;5.90;99.90
15991;DHT22;8100;50.994;4.538;2023-03-11T17:39:00;5.80;99.90
15991;DHT22;8100;50.994;4.538;2023-03-11T17:41:47;5.70;99.90
15991;DHT22;8100;50.994;4.538;2023-03-11T17:44:35;5.60;99.90
15991;DHT22;8100;50.994;4.538;2023-03-11T17:47:22;5.60;99.90
15991;DHT22;8100;50.994;4.538;2023-03-11T17:50:12;5.50;99.90
15991;DHT22;8100;50.994;4.538;2023-03-11T17:52:59;5.40;99.90
15991;DHT22;8100;50.994;4.538;2023-03-11T17:55:48;5.40;99.90
15991;DHT22;8100;50.994;4.538;2023-03-11T17:58:35;5.40;99.90
15991;DHT22;8100;50.994;4.538;2023-03-11T18:01:24;5.40;99.90
15991;DHT22;8100;50.994;4.538;2023-03-11T18:04:11;5.30;99.90
15991;DHT22;8100;50.994;4.538;2023-03-11T18:07:00;5.20;99.90
15991;DHT22;8100;50.994;4.538;2023-03-11T18:09:49;5.20;99.90
15991;DHT22;8100;50.994;4.538;2023-03-11T18:12:38;5.10;99.90
15991;DHT22;8100;50.994;4.538;2023-03-11T18:15:25;5.10;99.90
15991;DHT22;8100;50.994;4.538;2023-03-11T18:18:12;5.00;99.90
15991;DHT22;8100;50.994;4.538;2023-03-11T18:21:00;4.90;99.90
15991;DHT22;8100;50.994;4.538;2023-03-11T18:23:51;4.90;99.90
15991;DHT22;8100;50.994;4.538;2023-03-11T18:26:39;4.80;99.90
15991;DHT22;8100;50.994;4.538;2023-03-11T18:29:26;4.70;99.90
15991;DHT22;8100;50.994;4.538;2023-03-11T18:32:13;4.60;99.90
15991;DHT22;8100;50.994;4.538;2023-03-11T18:35:00;4.60;99.90